sensor_id;sensor_type;location;lat;lon;timestamp;P1;durP1;ratioP1;P2;durP2;ratioP2
80127;SDS011;69440;52.118;5.408;2023-11-19T00:00:28;12.35;;;3.70;;
80127;SDS011;69440;52.118;5.408;2023-11-19T00:02:54;13.20;;;3.88;;
80127;SDS011;69440;52.118;5.408;2023-11-19T00:05:21;15.13;;;3.90;;
80127;SDS011;69440;52.118;5.408;2023-11-19T00:07:47;12.07;;;3.90;;
80127;SDS011;69440;52.118;5.408;2023-11-19T00:10:14;14.77;;;4.18;;
80127;SDS011;69440;52.118;5.408;2023-11-19T00:12:45;11.30;;;3.50;;
80127;SDS011;69440;52.118;5.408;2023-11-19T00:15:13;10.80;;;3.75;;
80127;SDS011;69440;52.118;5.408;2023-11-19T00:17:41;9.77;;;2.97;;
80127;SDS011;69440;52.118;5.408;2023-11-19T00:20:12;12.80;;;3.22;;
80127;SDS011;69440;52.118;5.408;2023-11-19T00:22:40;12.98;;;3.45;;
80127;SDS011;69440;52.118;5.408;2023-11-19T00:25:10;16.48;;;4.18;;
80127;SDS011;69440;52.118;5.408;2023-11-19T00:27:37;19.95;;;3.53;;
80127;SDS011;69440;52.118;5.408;2023-11-19T00:30:04;16.95;;;3.60;;
80127;SDS011;69440;52.118;5.408;2023-11-19T00:32:32;20.75;;;3.28;;
80127;SDS011;69440;52.118;5.408;2023-11-19T00:34:59;17.48;;;3.28;;
80127;SDS011;69440;52.118;5.408;2023-11-19T00:37:25;18.95;;;3.70;;
80127;SDS011;69440;52.118;5.408;2023-11-19T00:39:52;13.23;;;2.80;;
80127;SDS011;69440;52.118;5.408;2023-11-19T00:42:19;15.48;;;2.83;;
80127;SDS011;69440;52.118;5.408;2023-11-19T00:44:45;15.57;;;3.47;;
80127;SDS011;69440;52.118;5.408;2023-11-19T00:47:14;13.32;;;2.67;;
80127;SDS011;69440;52.118;5.408;2023-11-19T00:49:41;17.98;;;3.85;;
80127;SDS011;69440;52.118;5.408;2023-11-19T00:52:08;10.43;;;2.60;;
80127;SDS011;69440;52.118;5.408;2023-11-19T00:54:35;17.67;;;2.53;;
80127;SDS011;69440;52.118;5.408;2023-11-19T00:57:02;15.45;;;3.00;;
80127;SDS011;69440;52.118;5.408;2023-11-19T00:59:28;14.57;;;2.85;;
80127;SDS011;69440;52.118;5.408;2023-11-19T01:01:55;22.45;;;3.47;;
80127;SDS011;69440;52.118;5.408;2023-11-19T01:04:22;20.38;;;2.80;;
80127;SDS011;69440;52.118;5.408;2023-11-19T01:06:50;23.80;;;3.20;;
80127;SDS011;69440;52.118;5.408;2023-11-19T01:09:17;19.75;;;2.80;;
80127;SDS011;69440;52.118;5.408;2023-11-19T01:11:43;17.20;;;3.35;;
80127;SDS011;69440;52.118;5.408;2023-11-19T01:14:10;21.10;;;2.95;;
80127;SDS011;69440;52.118;5.408;2023-11-19T01:16:36;12.85;;;3.47;;
80127;SDS011;69440;52.118;5.408;2023-11-19T01:19:03;20.02;;;3.35;;
80127;SDS011;69440;52.118;5.408;2023-11-19T01:21:43;22.73;;;3.60;;
80127;SDS011;69440;52.118;5.408;2023-11-19T01:24:09;21.13;;;3.33;;
80127;SDS011;69440;52.118;5.408;2023-11-19T01:26:38;21.35;;;3.25;;
80127;SDS011;69440;52.118;5.408;2023-11-19T01:29:05;22.00;;;3.30;;
80127;SDS011;69440;52.118;5.408;2023-11-19T01:31:31;17.52;;;3.22;;
80127;SDS011;69440;52.118;5.408;2023-11-19T01:34:00;24.67;;;3.83;;
80127;SDS011;69440;52.118;5.408;2023-11-19T01:36:26;22.35;;;3.47;;
80127;SDS011;69440;52.118;5.408;2023-11-19T01:38:53;19.40;;;2.58;;
80127;SDS011;69440;52.118;5.408;2023-11-19T01:41:19;20.42;;;4.10;;
80127;SDS011;69440;52.118;5.408;2023-11-19T01:43:46;29.20;;;3.50;;
80127;SDS011;69440;52.118;5.408;2023-11-19T01:46:13;22.58;;;3.15;;
80127;SDS011;69440;52.118;5.408;2023-11-19T01:48:42;21.45;;;3.15;;
80127;SDS011;69440;52.118;5.408;2023-11-19T01:51:10;17.42;;;2.92;;
80127;SDS011;69440;52.118;5.408;2023-11-19T01:53:39;30.27;;;4.50;;
80127;SDS011;69440;52.118;5.408;2023-11-19T01:56:07;21.48;;;2.92;;
80127;SDS011;69440;52.118;5.408;2023-11-19T01:58:36;29.00;;;3.63;;
80127;SDS011;69440;52.118;5.408;2023-11-19T02:01:03;22.23;;;3.20;;
80127;SDS011;69440;52.118;5.408;2023-11-19T02:03:33;29.98;;;3.53;;
80127;SDS011;69440;52.118;5.408;2023-11-19T02:06:00;27.08;;;3.72;;
80127;SDS011;69440;52.118;5.408;2023-11-19T02:08:27;25.58;;;4.22;;
80127;SDS011;69440;52.118;5.408;2023-11-19T02:10:53;23.92;;;4.18;;
80127;SDS011;69440;52.118;5.408;2023-11-19T02:13:24;25.05;;;3.95;;
80127;SDS011;69440;52.118;5.408;2023-11-19T02:15:51;29.10;;;3.50;;
80127;SDS011;69440;52.118;5.408;2023-11-19T02:18:22;25.50;;;3.88;;
80127;SDS011;69440;52.118;5.408;2023-11-19T02:20:54;21.83;;;3.45;;
80127;SDS011;69440;52.118;5.408;2023-11-19T02:23:21;26.02;;;2.88;;
80127;SDS011;69440;52.118;5.408;2023-11-19T02:25:56;31.95;;;4.47;;
80127;SDS011;69440;52.118;5.408;2023-11-19T02:28:28;26.67;;;3.25;;
80127;SDS011;69440;52.118;5.408;2023-11-19T02:30:54;23.05;;;3.30;;
80127;SDS011;69440;52.118;5.408;2023-11-19T02:33:21;23.08;;;3.42;;
80127;SDS011;69440;52.118;5.408;2023-11-19T02:35:47;25.77;;;3.53;;
80127;SDS011;69440;52.118;5.408;2023-11-19T02:38:14;27.65;;;3.10;;
80127;SDS011;69440;52.118;5.408;2023-11-19T02:40:41;31.58;;;4.50;;
80127;SDS011;69440;52.118;5.408;2023-11-19T02:43:07;29.67;;;4.18;;
80127;SDS011;69440;52.118;5.408;2023-11-19T02:45:35;31.67;;;3.92;;
80127;SDS011;69440;52.118;5.408;2023-11-19T02:48:02;29.75;;;3.95;;
80127;SDS011;69440;52.118;5.408;2023-11-19T02:50:28;38.85;;;5.07;;
80127;SDS011;69440;52.118;5.408;2023-11-19T02:52:55;28.20;;;4.75;;
80127;SDS011;69440;52.118;5.408;2023-11-19T02:55:23;29.63;;;3.47;;
80127;SDS011;69440;52.118;5.408;2023-11-19T02:57:51;30.17;;;4.78;;
80127;SDS011;69440;52.118;5.408;2023-11-19T03:00:20;32.17;;;3.92;;
80127;SDS011;69440;52.118;5.408;2023-11-19T03:02:51;24.73;;;3.08;;
80127;SDS011;69440;52.118;5.408;2023-11-19T03:08:07;24.55;;;3.10;;
80127;SDS011;69440;52.118;5.408;2023-11-19T03:10:33;30.65;;;4.13;;
80127;SDS011;69440;52.118;5.408;2023-11-19T03:13:01;36.95;;;4.38;;
80127;SDS011;69440;52.118;5.408;2023-11-19T03:15:29;26.17;;;3.72;;
80127;SDS011;69440;52.118;5.408;2023-11-19T03:17:56;30.17;;;5.15;;
80127;SDS011;69440;52.118;5.408;2023-11-19T03:20:22;28.98;;;3.50;;
80127;SDS011;69440;52.118;5.408;2023-11-19T03:22:50;28.45;;;4.25;;
80127;SDS011;69440;52.118;5.408;2023-11-19T03:25:17;28.95;;;3.80;;
80127;SDS011;69440;52.118;5.408;2023-11-19T03:27:44;28.63;;;5.68;;
80127;SDS011;69440;52.118;5.408;2023-11-19T03:30:10;26.80;;;3.47;;
80127;SDS011;69440;52.118;5.408;2023-11-19T03:32:37;32.50;;;4.85;;
80127;SDS011;69440;52.118;5.408;2023-11-19T03:35:05;30.27;;;4.10;;
80127;SDS011;69440;52.118;5.408;2023-11-19T03:37:35;24.83;;;3.63;;
80127;SDS011;69440;52.118;5.408;2023-11-19T03:40:02;32.97;;;3.97;;
80127;SDS011;69440;52.118;5.408;2023-11-19T03:42:30;29.60;;;4.68;;
80127;SDS011;69440;52.118;5.408;2023-11-19T03:44:57;27.60;;;4.65;;
80127;SDS011;69440;52.118;5.408;2023-11-19T03:47:24;31.35;;;4.32;;
80127;SDS011;69440;52.118;5.408;2023-11-19T03:49:51;32.90;;;4.07;;
80127;SDS011;69440;52.118;5.408;2023-11-19T03:52:18;28.48;;;4.95;;
80127;SDS011;69440;52.118;5.408;2023-11-19T03:54:46;33.20;;;4.65;;
80127;SDS011;69440;52.118;5.408;2023-11-19T03:57:13;30.63;;;3.80;;
80127;SDS011;69440;52.118;5.408;2023-11-19T03:59:39;35.42;;;3.92;;
80127;SDS011;69440;52.118;5.408;2023-11-19T04:02:06;37.35;;;4.43;;
80127;SDS011;69440;52.118;5.408;2023-11-19T04:04:32;30.98;;;5.03;;
80127;SDS011;69440;52.118;5.408;2023-11-19T04:07:00;24.13;;;3.83;;
80127;SDS011;69440;52.118;5.408;2023-11-19T04:09:29;29.05;;;4.90;;
80127;SDS011;69440;52.118;5.408;2023-11-19T04:11:56;35.45;;;4.40;;
80127;SDS011;69440;52.118;5.408;2023-11-19T04:14:23;31.00;;;3.95;;
80127;SDS011;69440;52.118;5.408;2023-11-19T04:16:49;28.17;;;3.92;;
80127;SDS011;69440;52.118;5.408;2023-11-19T04:19:17;26.90;;;4.13;;
80127;SDS011;69440;52.118;5.408;2023-11-19T04:21:44;34.92;;;4.75;;
80127;SDS011;69440;52.118;5.408;2023-11-19T04:24:11;32.47;;;4.03;;
80127;SDS011;69440;52.118;5.408;2023-11-19T04:26:41;30.05;;;5.00;;
80127;SDS011;69440;52.118;5.408;2023-11-19T04:29:09;30.58;;;3.67;;
80127;SDS011;69440;52.118;5.408;2023-11-19T04:31:37;31.13;;;3.67;;
80127;SDS011;69440;52.118;5.408;2023-11-19T04:34:04;32.22;;;3.83;;
80127;SDS011;69440;52.118;5.408;2023-11-19T04:36:33;23.98;;;3.60;;
80127;SDS011;69440;52.118;5.408;2023-11-19T04:39:00;31.10;;;3.72;;
80127;SDS011;69440;52.118;5.408;2023-11-19T04:41:27;41.83;;;4.45;;
80127;SDS011;69440;52.118;5.408;2023-11-19T04:43:54;35.40;;;4.13;;
80127;SDS011;69440;52.118;5.408;2023-11-19T04:46:21;20.65;;;3.78;;
80127;SDS011;69440;52.118;5.408;2023-11-19T04:48:49;30.83;;;4.22;;
80127;SDS011;69440;52.118;5.408;2023-11-19T04:51:16;29.50;;;4.10;;
80127;SDS011;69440;52.118;5.408;2023-11-19T04:53:43;32.17;;;4.00;;
80127;SDS011;69440;52.118;5.408;2023-11-19T04:56:09;24.38;;;4.65;;
80127;SDS011;69440;52.118;5.408;2023-11-19T04:58:36;29.33;;;4.57;;
80127;SDS011;69440;52.118;5.408;2023-11-19T05:01:04;33.80;;;4.15;;
80127;SDS011;69440;52.118;5.408;2023-11-19T05:03:31;28.17;;;4.25;;
80127;SDS011;69440;52.118;5.408;2023-11-19T05:05:58;31.67;;;4.57;;
80127;SDS011;69440;52.118;5.408;2023-11-19T05:08:25;33.15;;;4.70;;
80127;SDS011;69440;52.118;5.408;2023-11-19T05:10:51;33.55;;;3.70;;
80127;SDS011;69440;52.118;5.408;2023-11-19T05:13:18;32.95;;;3.60;;
80127;SDS011;69440;52.118;5.408;2023-11-19T05:15:44;20.73;;;4.05;;
80127;SDS011;69440;52.118;5.408;2023-11-19T05:18:11;30.55;;;3.58;;
80127;SDS011;69440;52.118;5.408;2023-11-19T05:20:37;35.25;;;4.53;;
80127;SDS011;69440;52.118;5.408;2023-11-19T05:23:04;34.13;;;3.80;;
80127;SDS011;69440;52.118;5.408;2023-11-19T05:25:30;34.75;;;5.30;;
80127;SDS011;69440;52.118;5.408;2023-11-19T05:27:57;31.90;;;4.57;;
80127;SDS011;69440;52.118;5.408;2023-11-19T05:30:23;26.10;;;3.78;;
80127;SDS011;69440;52.118;5.408;2023-11-19T05:32:50;23.75;;;4.05;;
80127;SDS011;69440;52.118;5.408;2023-11-19T05:35:16;24.52;;;3.78;;
80127;SDS011;69440;52.118;5.408;2023-11-19T05:37:43;34.50;;;4.13;;
80127;SDS011;69440;52.118;5.408;2023-11-19T05:40:09;30.63;;;3.95;;
80127;SDS011;69440;52.118;5.408;2023-11-19T05:42:41;25.05;;;4.15;;
80127;SDS011;69440;52.118;5.408;2023-11-19T05:45:09;30.55;;;3.90;;
80127;SDS011;69440;52.118;5.408;2023-11-19T05:47:37;33.83;;;4.57;;
80127;SDS011;69440;52.118;5.408;2023-11-19T05:50:04;31.20;;;3.85;;
80127;SDS011;69440;52.118;5.408;2023-11-19T05:52:32;30.58;;;4.30;;
80127;SDS011;69440;52.118;5.408;2023-11-19T05:55:00;33.10;;;3.78;;
80127;SDS011;69440;52.118;5.408;2023-11-19T05:57:30;34.72;;;4.05;;
80127;SDS011;69440;52.118;5.408;2023-11-19T05:59:57;36.85;;;4.28;;
80127;SDS011;69440;52.118;5.408;2023-11-19T06:02:25;34.63;;;5.40;;
80127;SDS011;69440;52.118;5.408;2023-11-19T06:04:53;33.78;;;4.25;;
80127;SDS011;69440;52.118;5.408;2023-11-19T06:07:19;28.05;;;4.80;;
80127;SDS011;69440;52.118;5.408;2023-11-19T06:09:46;25.83;;;3.70;;
80127;SDS011;69440;52.118;5.408;2023-11-19T06:12:12;31.00;;;4.47;;
80127;SDS011;69440;52.118;5.408;2023-11-19T06:14:40;37.58;;;4.43;;
80127;SDS011;69440;52.118;5.408;2023-11-19T06:17:07;35.90;;;4.75;;
80127;SDS011;69440;52.118;5.408;2023-11-19T06:19:34;30.52;;;5.47;;
80127;SDS011;69440;52.118;5.408;2023-11-19T06:22:04;30.98;;;3.75;;
80127;SDS011;69440;52.118;5.408;2023-11-19T06:24:30;27.02;;;4.30;;
80127;SDS011;69440;52.118;5.408;2023-11-19T06:26:57;37.72;;;4.60;;
80127;SDS011;69440;52.118;5.408;2023-11-19T06:29:24;31.67;;;3.75;;
80127;SDS011;69440;52.118;5.408;2023-11-19T06:31:50;30.35;;;3.85;;
80127;SDS011;69440;52.118;5.408;2023-11-19T06:34:17;37.60;;;4.43;;
80127;SDS011;69440;52.118;5.408;2023-11-19T06:36:44;30.98;;;3.88;;
80127;SDS011;69440;52.118;5.408;2023-11-19T06:39:11;30.27;;;4.82;;
80127;SDS011;69440;52.118;5.408;2023-11-19T06:41:38;31.75;;;4.05;;
80127;SDS011;69440;52.118;5.408;2023-11-19T06:44:05;30.50;;;4.00;;
80127;SDS011;69440;52.118;5.408;2023-11-19T06:46:31;30.38;;;3.88;;
80127;SDS011;69440;52.118;5.408;2023-11-19T06:48:58;32.65;;;3.58;;
80127;SDS011;69440;52.118;5.408;2023-11-19T06:51:24;28.75;;;3.80;;
80127;SDS011;69440;52.118;5.408;2023-11-19T06:53:51;32.05;;;4.05;;
80127;SDS011;69440;52.118;5.408;2023-11-19T06:56:26;39.92;;;4.78;;
80127;SDS011;69440;52.118;5.408;2023-11-19T06:58:53;26.40;;;4.03;;
80127;SDS011;69440;52.118;5.408;2023-11-19T07:01:20;30.20;;;4.22;;
80127;SDS011;69440;52.118;5.408;2023-11-19T07:03:47;31.38;;;3.85;;
80127;SDS011;69440;52.118;5.408;2023-11-19T07:06:15;29.65;;;4.18;;
80127;SDS011;69440;52.118;5.408;2023-11-19T07:08:41;37.13;;;4.90;;
80127;SDS011;69440;52.118;5.408;2023-11-19T07:11:11;26.67;;;3.80;;
80127;SDS011;69440;52.118;5.408;2023-11-19T07:13:38;37.78;;;4.10;;
80127;SDS011;69440;52.118;5.408;2023-11-19T07:16:04;26.27;;;4.80;;
80127;SDS011;69440;52.118;5.408;2023-11-19T07:18:31;32.95;;;4.97;;
80127;SDS011;69440;52.118;5.408;2023-11-19T07:20:58;31.88;;;3.60;;
80127;SDS011;69440;52.118;5.408;2023-11-19T07:23:26;30.17;;;4.47;;
80127;SDS011;69440;52.118;5.408;2023-11-19T07:25:52;29.80;;;4.57;;
80127;SDS011;69440;52.118;5.408;2023-11-19T07:28:19;28.10;;;3.78;;
80127;SDS011;69440;52.118;5.408;2023-11-19T07:30:46;23.02;;;4.10;;
80127;SDS011;69440;52.118;5.408;2023-11-19T07:33:12;25.98;;;3.83;;
80127;SDS011;69440;52.118;5.408;2023-11-19T07:35:39;34.03;;;4.63;;
80127;SDS011;69440;52.118;5.408;2023-11-19T07:38:08;33.60;;;3.92;;
80127;SDS011;69440;52.118;5.408;2023-11-19T07:40:35;28.65;;;3.72;;
80127;SDS011;69440;52.118;5.408;2023-11-19T07:43:01;29.63;;;3.83;;
80127;SDS011;69440;52.118;5.408;2023-11-19T07:45:28;28.30;;;3.90;;
80127;SDS011;69440;52.118;5.408;2023-11-19T07:47:54;30.15;;;3.95;;
80127;SDS011;69440;52.118;5.408;2023-11-19T07:50:21;28.42;;;4.32;;
80127;SDS011;69440;52.118;5.408;2023-11-19T07:52:47;30.50;;;4.20;;
80127;SDS011;69440;52.118;5.408;2023-11-19T07:55:14;23.85;;;4.07;;
80127;SDS011;69440;52.118;5.408;2023-11-19T07:57:40;22.15;;;4.35;;
80127;SDS011;69440;52.118;5.408;2023-11-19T08:00:07;30.63;;;4.30;;
80127;SDS011;69440;52.118;5.408;2023-11-19T08:02:38;29.83;;;4.53;;
80127;SDS011;69440;52.118;5.408;2023-11-19T08:05:05;32.35;;;4.25;;
80127;SDS011;69440;52.118;5.408;2023-11-19T08:07:32;29.20;;;3.55;;
80127;SDS011;69440;52.118;5.408;2023-11-19T08:09:59;25.98;;;3.90;;
80127;SDS011;69440;52.118;5.408;2023-11-19T08:12:26;24.95;;;3.90;;
80127;SDS011;69440;52.118;5.408;2023-11-19T08:14:52;38.60;;;4.03;;
80127;SDS011;69440;52.118;5.408;2023-11-19T08:17:19;34.72;;;4.88;;
80127;SDS011;69440;52.118;5.408;2023-11-19T08:19:45;22.45;;;3.38;;
80127;SDS011;69440;52.118;5.408;2023-11-19T08:22:12;27.55;;;4.40;;
80127;SDS011;69440;52.118;5.408;2023-11-19T08:24:38;35.97;;;3.55;;
80127;SDS011;69440;52.118;5.408;2023-11-19T08:27:05;25.33;;;3.65;;
80127;SDS011;69440;52.118;5.408;2023-11-19T08:29:31;23.58;;;4.28;;
80127;SDS011;69440;52.118;5.408;2023-11-19T08:31:59;26.48;;;3.88;;
80127;SDS011;69440;52.118;5.408;2023-11-19T08:34:28;31.40;;;3.60;;
80127;SDS011;69440;52.118;5.408;2023-11-19T08:36:55;30.20;;;4.18;;
80127;SDS011;69440;52.118;5.408;2023-11-19T08:39:22;33.65;;;4.78;;
80127;SDS011;69440;52.118;5.408;2023-11-19T08:41:48;26.70;;;4.18;;
80127;SDS011;69440;52.118;5.408;2023-11-19T08:44:15;27.02;;;3.28;;
80127;SDS011;69440;52.118;5.408;2023-11-19T08:46:47;30.60;;;3.75;;
80127;SDS011;69440;52.118;5.408;2023-11-19T08:49:17;31.65;;;4.65;;
80127;SDS011;69440;52.118;5.408;2023-11-19T08:51:45;27.55;;;3.20;;
80127;SDS011;69440;52.118;5.408;2023-11-19T08:54:12;25.60;;;3.78;;
80127;SDS011;69440;52.118;5.408;2023-11-19T08:56:39;23.60;;;4.05;;
80127;SDS011;69440;52.118;5.408;2023-11-19T08:59:05;32.38;;;4.15;;
80127;SDS011;69440;52.118;5.408;2023-11-19T09:01:32;22.92;;;3.53;;
80127;SDS011;69440;52.118;5.408;2023-11-19T09:03:58;26.52;;;3.60;;
80127;SDS011;69440;52.118;5.408;2023-11-19T09:06:25;26.95;;;3.83;;
80127;SDS011;69440;52.118;5.408;2023-11-19T09:08:52;28.85;;;4.47;;
80127;SDS011;69440;52.118;5.408;2023-11-19T09:11:18;28.23;;;3.60;;
80127;SDS011;69440;52.118;5.408;2023-11-19T09:13:45;30.33;;;4.78;;
80127;SDS011;69440;52.118;5.408;2023-11-19T09:16:11;21.80;;;3.83;;
80127;SDS011;69440;52.118;5.408;2023-11-19T09:18:38;29.25;;;4.00;;
80127;SDS011;69440;52.118;5.408;2023-11-19T09:21:04;29.73;;;4.03;;
80127;SDS011;69440;52.118;5.408;2023-11-19T09:23:31;25.05;;;3.97;;
80127;SDS011;69440;52.118;5.408;2023-11-19T09:26:02;25.10;;;4.07;;
80127;SDS011;69440;52.118;5.408;2023-11-19T09:28:29;27.45;;;4.35;;
80127;SDS011;69440;52.118;5.408;2023-11-19T09:30:55;25.90;;;4.22;;
80127;SDS011;69440;52.118;5.408;2023-11-19T09:33:22;23.85;;;3.55;;
80127;SDS011;69440;52.118;5.408;2023-11-19T09:35:48;29.98;;;5.65;;
80127;SDS011;69440;52.118;5.408;2023-11-19T09:38:16;27.70;;;3.92;;
80127;SDS011;69440;52.118;5.408;2023-11-19T09:40:43;29.00;;;4.00;;
80127;SDS011;69440;52.118;5.408;2023-11-19T09:43:09;24.55;;;3.10;;
80127;SDS011;69440;52.118;5.408;2023-11-19T09:45:49;28.55;;;4.47;;
80127;SDS011;69440;52.118;5.408;2023-11-19T09:48:17;26.40;;;3.60;;
80127;SDS011;69440;52.118;5.408;2023-11-19T09:50:45;25.58;;;3.42;;
80127;SDS011;69440;52.118;5.408;2023-11-19T09:53:13;27.05;;;3.97;;
80127;SDS011;69440;52.118;5.408;2023-11-19T09:55:40;26.33;;;4.70;;
80127;SDS011;69440;52.118;5.408;2023-11-19T09:58:07;26.17;;;3.97;;
80127;SDS011;69440;52.118;5.408;2023-11-19T10:00:34;28.13;;;3.97;;
80127;SDS011;69440;52.118;5.408;2023-11-19T10:03:01;25.55;;;4.25;;
80127;SDS011;69440;52.118;5.408;2023-11-19T10:05:29;28.92;;;4.70;;
80127;SDS011;69440;52.118;5.408;2023-11-19T10:07:55;23.70;;;5.38;;
80127;SDS011;69440;52.118;5.408;2023-11-19T10:10:24;25.02;;;4.40;;
80127;SDS011;69440;52.118;5.408;2023-11-19T10:12:58;31.33;;;3.85;;
80127;SDS011;69440;52.118;5.408;2023-11-19T10:15:26;24.40;;;4.55;;
80127;SDS011;69440;52.118;5.408;2023-11-19T10:17:56;32.25;;;3.88;;
80127;SDS011;69440;52.118;5.408;2023-11-19T10:20:24;27.88;;;4.13;;
80127;SDS011;69440;52.118;5.408;2023-11-19T10:22:53;29.23;;;4.13;;
80127;SDS011;69440;52.118;5.408;2023-11-19T10:25:21;27.17;;;3.70;;
80127;SDS011;69440;52.118;5.408;2023-11-19T10:27:50;22.90;;;4.05;;
80127;SDS011;69440;52.118;5.408;2023-11-19T10:30:18;24.77;;;3.75;;
80127;SDS011;69440;52.118;5.408;2023-11-19T10:35:34;27.35;;;3.90;;
80127;SDS011;69440;52.118;5.408;2023-11-19T10:38:27;27.30;;;4.20;;
80127;SDS011;69440;52.118;5.408;2023-11-19T10:40:54;21.40;;;3.75;;
80127;SDS011;69440;52.118;5.408;2023-11-19T10:43:27;26.23;;;3.70;;
80127;SDS011;69440;52.118;5.408;2023-11-19T10:45:54;29.70;;;3.67;;
80127;SDS011;69440;52.118;5.408;2023-11-19T10:48:38;28.73;;;3.78;;
80127;SDS011;69440;52.118;5.408;2023-11-19T10:51:06;23.48;;;3.42;;
80127;SDS011;69440;52.118;5.408;2023-11-19T10:53:43;25.17;;;3.67;;
80127;SDS011;69440;52.118;5.408;2023-11-19T10:56:11;18.50;;;4.05;;
80127;SDS011;69440;52.118;5.408;2023-11-19T10:58:44;21.27;;;3.45;;
80127;SDS011;69440;52.118;5.408;2023-11-19T11:01:13;20.90;;;3.65;;
80127;SDS011;69440;52.118;5.408;2023-11-19T11:03:44;19.48;;;4.20;;
80127;SDS011;69440;52.118;5.408;2023-11-19T11:06:17;24.88;;;3.47;;
80127;SDS011;69440;52.118;5.408;2023-11-19T11:08:44;24.48;;;3.58;;
80127;SDS011;69440;52.118;5.408;2023-11-19T11:11:13;24.30;;;4.18;;
80127;SDS011;69440;52.118;5.408;2023-11-19T11:13:43;25.02;;;3.78;;
80127;SDS011;69440;52.118;5.408;2023-11-19T11:16:11;22.83;;;4.28;;
80127;SDS011;69440;52.118;5.408;2023-11-19T11:18:38;22.48;;;3.50;;
80127;SDS011;69440;52.118;5.408;2023-11-19T11:26:40;23.98;;;4.45;;
80127;SDS011;69440;52.118;5.408;2023-11-19T11:29:37;21.02;;;4.35;;
80127;SDS011;69440;52.118;5.408;2023-11-19T11:35:12;23.02;;;3.63;;
80127;SDS011;69440;52.118;5.408;2023-11-19T11:37:53;29.70;;;3.83;;
80127;SDS011;69440;52.118;5.408;2023-11-19T11:40:33;26.38;;;4.03;;
80127;SDS011;69440;52.118;5.408;2023-11-19T11:43:00;26.35;;;4.30;;
80127;SDS011;69440;52.118;5.408;2023-11-19T11:45:37;22.38;;;4.00;;
80127;SDS011;69440;52.118;5.408;2023-11-19T11:50:50;22.70;;;4.20;;
80127;SDS011;69440;52.118;5.408;2023-11-19T11:53:23;29.83;;;3.80;;
80127;SDS011;69440;52.118;5.408;2023-11-19T11:58:21;23.00;;;4.15;;
80127;SDS011;69440;52.118;5.408;2023-11-19T12:00:58;22.95;;;3.28;;
80127;SDS011;69440;52.118;5.408;2023-11-19T12:03:27;19.13;;;3.53;;
80127;SDS011;69440;52.118;5.408;2023-11-19T12:05:56;25.45;;;3.60;;
80127;SDS011;69440;52.118;5.408;2023-11-19T12:08:24;20.60;;;3.40;;
80127;SDS011;69440;52.118;5.408;2023-11-19T12:10:53;26.52;;;3.45;;
80127;SDS011;69440;52.118;5.408;2023-11-19T12:13:24;24.75;;;3.75;;
80127;SDS011;69440;52.118;5.408;2023-11-19T12:18:28;16.48;;;3.38;;
80127;SDS011;69440;52.118;5.408;2023-11-19T12:20:57;20.05;;;3.45;;
80127;SDS011;69440;52.118;5.408;2023-11-19T12:23:26;24.48;;;3.67;;
80127;SDS011;69440;52.118;5.408;2023-11-19T12:25:55;23.30;;;2.90;;
80127;SDS011;69440;52.118;5.408;2023-11-19T12:28:23;18.13;;;2.83;;
80127;SDS011;69440;52.118;5.408;2023-11-19T12:30:52;20.27;;;3.05;;
80127;SDS011;69440;52.118;5.408;2023-11-19T12:33:19;25.60;;;3.55;;
80127;SDS011;69440;52.118;5.408;2023-11-19T12:35:47;12.95;;;2.45;;
80127;SDS011;69440;52.118;5.408;2023-11-19T12:38:20;22.77;;;3.10;;
80127;SDS011;69440;52.118;5.408;2023-11-19T12:41:04;21.08;;;2.72;;
80127;SDS011;69440;52.118;5.408;2023-11-19T12:43:31;17.20;;;3.05;;
80127;SDS011;69440;52.118;5.408;2023-11-19T12:46:19;17.73;;;3.90;;
80127;SDS011;69440;52.118;5.408;2023-11-19T12:49:12;16.95;;;2.92;;
80127;SDS011;69440;52.118;5.408;2023-11-19T12:51:39;22.83;;;3.70;;
80127;SDS011;69440;52.118;5.408;2023-11-19T12:54:06;21.92;;;3.40;;
80127;SDS011;69440;52.118;5.408;2023-11-19T12:56:32;23.63;;;3.22;;
80127;SDS011;69440;52.118;5.408;2023-11-19T12:59:09;16.73;;;3.03;;
80127;SDS011;69440;52.118;5.408;2023-11-19T13:01:38;24.17;;;3.33;;
80127;SDS011;69440;52.118;5.408;2023-11-19T13:04:20;20.90;;;3.33;;
80127;SDS011;69440;52.118;5.408;2023-11-19T13:06:46;23.58;;;3.03;;
80127;SDS011;69440;52.118;5.408;2023-11-19T13:11:57;26.33;;;3.53;;
80127;SDS011;69440;52.118;5.408;2023-11-19T13:14:36;16.70;;;3.03;;
80127;SDS011;69440;52.118;5.408;2023-11-19T13:17:08;22.60;;;3.67;;
80127;SDS011;69440;52.118;5.408;2023-11-19T13:19:34;24.63;;;3.40;;
80127;SDS011;69440;52.118;5.408;2023-11-19T13:22:01;28.00;;;3.67;;
80127;SDS011;69440;52.118;5.408;2023-11-19T13:24:28;24.30;;;4.53;;
80127;SDS011;69440;52.118;5.408;2023-11-19T13:26:54;21.73;;;3.50;;
80127;SDS011;69440;52.118;5.408;2023-11-19T13:29:22;21.73;;;3.65;;
80127;SDS011;69440;52.118;5.408;2023-11-19T13:31:48;18.20;;;4.38;;
80127;SDS011;69440;52.118;5.408;2023-11-19T13:34:16;21.67;;;3.10;;
80127;SDS011;69440;52.118;5.408;2023-11-19T13:36:42;23.27;;;3.13;;
80127;SDS011;69440;52.118;5.408;2023-11-19T13:39:09;20.38;;;3.78;;
80127;SDS011;69440;52.118;5.408;2023-11-19T13:41:35;17.80;;;3.92;;
80127;SDS011;69440;52.118;5.408;2023-11-19T13:44:02;18.38;;;3.05;;
80127;SDS011;69440;52.118;5.408;2023-11-19T13:46:28;26.40;;;3.58;;
80127;SDS011;69440;52.118;5.408;2023-11-19T13:48:55;17.20;;;3.03;;
80127;SDS011;69440;52.118;5.408;2023-11-19T13:51:31;23.95;;;3.85;;
80127;SDS011;69440;52.118;5.408;2023-11-19T13:53:58;20.65;;;4.05;;
80127;SDS011;69440;52.118;5.408;2023-11-19T13:56:24;23.25;;;3.45;;
80127;SDS011;69440;52.118;5.408;2023-11-19T13:58:51;21.33;;;2.83;;
80127;SDS011;69440;52.118;5.408;2023-11-19T14:01:19;24.67;;;3.13;;
80127;SDS011;69440;52.118;5.408;2023-11-19T14:03:50;20.48;;;2.83;;
80127;SDS011;69440;52.118;5.408;2023-11-19T14:06:32;18.75;;;2.72;;
80127;SDS011;69440;52.118;5.408;2023-11-19T14:08:59;17.60;;;2.70;;
80127;SDS011;69440;52.118;5.408;2023-11-19T14:11:25;12.10;;;2.58;;
80127;SDS011;69440;52.118;5.408;2023-11-19T14:13:52;18.55;;;2.78;;
80127;SDS011;69440;52.118;5.408;2023-11-19T14:16:18;16.27;;;2.40;;
80127;SDS011;69440;52.118;5.408;2023-11-19T14:18:45;24.17;;;3.03;;
80127;SDS011;69440;52.118;5.408;2023-11-19T14:21:11;17.45;;;2.97;;
80127;SDS011;69440;52.118;5.408;2023-11-19T14:23:40;16.05;;;2.85;;
80127;SDS011;69440;52.118;5.408;2023-11-19T14:26:07;20.27;;;2.75;;
80127;SDS011;69440;52.118;5.408;2023-11-19T14:28:33;18.13;;;2.50;;
80127;SDS011;69440;52.118;5.408;2023-11-19T14:31:20;22.17;;;3.17;;
80127;SDS011;69440;52.118;5.408;2023-11-19T14:33:47;23.73;;;2.78;;
80127;SDS011;69440;52.118;5.408;2023-11-19T14:36:15;21.40;;;3.63;;
80127;SDS011;69440;52.118;5.408;2023-11-19T14:38:42;18.70;;;3.33;;
80127;SDS011;69440;52.118;5.408;2023-11-19T14:41:11;21.85;;;2.88;;
80127;SDS011;69440;52.118;5.408;2023-11-19T14:43:42;18.20;;;3.00;;
80127;SDS011;69440;52.118;5.408;2023-11-19T14:46:08;19.48;;;2.83;;
80127;SDS011;69440;52.118;5.408;2023-11-19T14:48:35;22.65;;;2.53;;
80127;SDS011;69440;52.118;5.408;2023-11-19T14:51:02;16.52;;;3.45;;
80127;SDS011;69440;52.118;5.408;2023-11-19T14:53:29;25.42;;;3.60;;
80127;SDS011;69440;52.118;5.408;2023-11-19T14:55:56;21.15;;;3.13;;
80127;SDS011;69440;52.118;5.408;2023-11-19T14:58:22;23.23;;;3.15;;
80127;SDS011;69440;52.118;5.408;2023-11-19T15:00:49;24.55;;;4.75;;
80127;SDS011;69440;52.118;5.408;2023-11-19T15:03:15;21.42;;;3.92;;